Time;durP1;ratioP1;P1;durP2;ratioP2;P2;SDS_P1;SDS_P2;PMS_P1;PMS_P2;Temp;Humidity;BMP_temperature;BMP_pressure;BME280_temperature;BME280_humidity;BME280_pressure;Samples;Min_cycle;Max_cycle;Signal;HPM_P1;HPM_P2
2022/11/17 00:00:25;;;;;;;14.53;5.87;;;;;;;15.74;65.95;97937.50;5073069;28;20172;-92
2022/11/17 00:02:51;;;;;;;18.23;6.87;;;;;;;15.83;65.66;97938.44;5073521;28;20620;-90
2022/11/17 00:05:16;;;;;;;14.90;6.37;;;;;;;15.87;65.19;97937.19;5072828;28;20187;-89
2022/11/17 00:07:44;;;;;;;14.97;5.63;;;;;;;15.93;65.03;97936.63;5071992;28;20277;-90
2022/11/17 00:10:10;;;;;;;14.73;6.33;;;;;;;15.92;64.86;97945.50;5071903;28;20247;-90
2022/11/17 00:15:20;;;;;;;17.57;6.50;;;;;;;15.93;64.37;97939.25;5073118;28;20191;-90
2022/11/17 00:21:17;;;;;;;14.13;6.90;;;;;;;15.96;64.21;97933.66;5072863;28;20641;-91
2022/11/17 00:23:16;;;;;;;12.30;6.07;;;;;;;15.98;63.66;97927.25;5073377;28;20613;-88
2022/11/17 00:25:41;;;;;;;17.83;8.13;;;;;;;15.97;63.40;97920.31;5071822;28;20630;-90
2022/11/17 00:28:07;;;;;;;15.37;7.27;;;;;;;15.97;63.21;97919.47;5073024;28;20199;-90
2022/11/17 00:36:00;;;;;;;19.60;10.17;;;;;;;15.89;63.35;97908.78;5073348;28;20206;-89
2022/11/17 00:38:25;;;;;;;21.03;11.33;;;;;;;15.83;63.73;97907.56;5073203;28;20187;-90
2022/11/17 00:40:51;;;;;;;22.33;10.23;;;;;;;15.80;64.11;97907.03;5072557;28;20180;-89
2022/11/17 00:43:16;;;;;;;25.07;11.20;;;;;;;15.76;64.01;97903.00;5072970;28;20618;-89
2022/11/17 00:45:41;;;;;;;27.33;10.30;;;;;;;15.77;64.31;97899.38;5072515;28;20635;-90
2022/11/17 00:48:07;;;;;;;23.40;10.80;;;;;;;15.71;64.67;97905.22;5072637;28;20185;-90
2022/11/17 00:50:32;;;;;;;21.70;9.40;;;;;;;15.62;65.38;97895.50;5072565;28;20176;-89
2022/11/17 00:52:58;;;;;;;24.60;11.13;;;;;;;15.63;65.19;97890.09;5072479;28;20248;-89
2022/11/17 00:55:23;;;;;;;26.07;11.47;;;;;;;15.64;65.09;97889.13;5075179;28;20176;-89
2022/11/17 00:57:49;;;;;;;17.67;10.63;;;;;;;15.63;65.28;97876.06;5076236;28;20191;-89
2022/11/17 01:00:15;;;;;;;21.27;9.10;;;;;;;15.63;65.43;97886.63;5075171;28;20673;-89
2022/11/17 01:02:40;;;;;;;21.23;9.87;;;;;;;15.61;65.77;97883.28;5075145;28;20187;-91
2022/11/17 01:05:06;;;;;;;21.53;10.70;;;;;;;15.56;65.62;97886.38;5075018;28;20208;-89
2022/11/17 01:07:31;;;;;;;23.10;11.03;;;;;;;15.57;65.87;97887.16;5075078;28;20209;-90
2022/11/17 01:09:57;;;;;;;21.10;9.97;;;;;;;15.54;65.94;97887.47;5075998;28;20252;-89
2022/11/17 01:12:22;;;;;;;21.80;9.77;;;;;;;15.51;65.96;97880.69;5076009;28;20586;-89
2022/11/17 01:14:48;;;;;;;28.93;13.33;;;;;;;15.51;65.87;97878.03;5076029;28;20184;-89
2022/11/17 01:17:13;;;;;;;23.80;10.73;;;;;;;15.48;65.89;97877.47;5075819;28;20226;-88
2022/11/17 01:19:38;;;;;;;23.03;10.20;;;;;;;15.48;65.78;97872.19;5076117;28;20628;-90
2022/11/17 01:22:04;;;;;;;24.07;11.17;;;;;;;15.46;66.06;97869.69;5076193;28;20614;-89
2022/11/17 01:24:30;;;;;;;25.10;11.40;;;;;;;15.43;65.96;97863.84;5075740;28;20176;-89
2022/11/17 01:26:55;;;;;;;23.20;11.10;;;;;;;15.49;65.94;97858.03;5074775;28;20701;-91
2022/11/17 01:29:20;;;;;;;24.80;10.43;;;;;;;15.51;65.88;97850.78;5075750;28;20245;-89
2022/11/17 01:31:50;;;;;;;22.87;10.70;;;;;;;15.55;65.78;97844.22;5076138;28;20178;-89
2022/11/17 01:34:15;;;;;;;21.80;9.50;;;;;;;15.45;66.07;97832.84;5075610;28;20241;-89
2022/11/17 01:39:28;;;;;;;27.20;10.47;;;;;;;15.32;66.55;97835.78;5076090;28;20250;-91
2022/11/17 01:41:54;;;;;;;22.13;11.73;;;;;;;15.28;66.65;97829.94;5075469;28;20180;-90
2022/11/17 01:44:35;;;;;;;28.60;12.67;;;;;;;15.30;66.37;97832.47;5075609;28;20272;-89
2022/11/17 01:47:03;;;;;;;25.63;11.23;;;;;;;15.24;66.54;97825.94;5075317;28;20171;-89
2022/11/17 01:49:29;;;;;;;24.03;11.13;;;;;;;15.23;66.38;97824.25;5075297;28;20175;-89
2022/11/17 01:52:01;;;;;;;26.67;11.47;;;;;;;15.27;66.34;97824.81;5075254;28;20176;-89
2022/11/17 01:54:29;;;;;;;26.47;11.43;;;;;;;15.30;66.40;97821.91;5075470;28;20175;-89
2022/11/17 01:57:02;;;;;;;23.17;11.10;;;;;;;15.28;66.22;97808.81;5075061;28;20203;-89
2022/11/17 01:59:37;;;;;;;22.07;10.93;;;;;;;15.30;66.08;97808.69;5075187;28;20157;-89
2022/11/17 02:02:03;;;;;;;27.17;11.27;;;;;;;15.31;65.91;97805.91;5074150;28;20172;-89
2022/11/17 02:04:46;;;;;;;28.07;11.33;;;;;;;15.33;65.71;97800.47;5074632;28;20260;-90
2022/11/17 02:07:35;;;;;;;26.97;11.57;;;;;;;15.32;65.74;97809.38;5075538;28;20151;-88
2022/11/17 02:10:01;;;;;;;28.27;12.47;;;;;;;15.28;65.83;97807.97;5075196;28;20590;-88
2022/11/17 02:12:30;;;;;;;26.43;11.70;;;;;;;15.21;66.64;97807.72;5074816;28;20198;-89
2022/11/17 02:14:56;;;;;;;25.50;10.83;;;;;;;15.22;66.77;97795.38;5074820;28;20243;-89
2022/11/17 02:17:33;;;;;;;22.87;11.00;;;;;;;15.27;66.50;97801.91;5074762;28;20195;-88
2022/11/17 02:20:11;;;;;;;25.20;10.77;;;;;;;15.22;66.81;97795.38;5075054;28;20169;-89
2022/11/17 02:22:48;;;;;;;23.87;11.17;;;;;;;15.22;66.76;97792.75;5073951;28;20572;-90
2022/11/17 02:25:51;;;;;;;24.00;10.93;;;;;;;15.03;67.44;97798.03;5075113;28;20199;-88
2022/11/17 02:28:43;;;;;;;20.77;10.53;;;;;;;15.00;67.95;97798.31;5074732;28;20622;-89
2022/11/17 02:31:19;;;;;;;29.27;11.93;;;;;;;15.06;67.92;97792.47;5036196;28;20198;-90
2022/11/17 02:34:14;;;;;;;24.60;12.23;;;;;;;14.98;68.36;97795.00;5074339;28;20206;-89
2022/11/17 02:37:11;;;;;;;23.17;10.13;;;;;;;15.01;68.59;97781.53;5060943;28;20217;-90
2022/11/17 02:39:54;;;;;;;27.60;11.93;;;;;;;14.94;68.70;97783.88;5074610;28;20172;-89
2022/11/17 02:45:32;;;;;;;21.00;10.00;;;;;;;14.84;69.03;97777.78;5074990;28;20617;-90
2022/11/17 02:48:02;;;;;;;18.77;9.37;;;;;;;14.85;69.38;97779.44;5074312;28;20163;-89
2022/11/17 02:50:28;;;;;;;22.97;9.67;;;;;;;14.90;69.28;97774.59;5073075;28;20179;-89
2022/11/17 02:52:55;;;;;;;26.93;11.97;;;;;;;14.92;69.10;97788.47;5074302;28;20182;-91
2022/11/17 02:55:20;;;;;;;21.37;11.70;;;;;;;14.92;69.26;97785.00;5073920;28;20595;-90
2022/11/17 02:57:46;;;;;;;26.57;11.20;;;;;;;14.97;68.96;97782.75;5073023;28;20214;-89
2022/11/17 03:00:17;;;;;;;29.37;10.40;;;;;;;14.94;68.63;97789.16;5074390;28;20180;-89
2022/11/17 03:03:03;;;;;;;27.37;11.93;;;;;;;14.92;68.73;97785.00;5073842;28;20183;-88
2022/11/17 03:05:56;;;;;;;27.27;11.53;;;;;;;14.93;68.78;97782.22;5073900;28;20508;-89
2022/11/17 03:08:43;;;;;;;20.97;10.73;;;;;;;14.95;68.51;97776.78;5072698;28;20226;-89
2022/11/17 03:11:10;;;;;;;25.60;11.30;;;;;;;14.90;68.80;97766.69;5074319;28;20625;-88
2022/11/17 03:13:56;;;;;;;21.97;11.27;;;;;;;14.84;68.95;97758.47;5073651;28;20179;-89
2022/11/17 03:16:29;;;;;;;25.23;10.23;;;;;;;14.85;68.95;97757.50;5072576;28;20219;-89
2022/11/17 03:19:04;;;;;;;24.10;11.87;;;;;;;14.90;69.11;97766.69;5073729;28;20237;-89
2022/11/17 03:21:54;;;;;;;24.87;11.47;;;;;;;14.94;69.02;97761.94;5072822;28;20217;-90
2022/11/17 03:24:32;;;;;;;30.57;12.43;;;;;;;14.98;68.40;97769.44;5073759;28;20194;-89
2022/11/17 03:27:09;;;;;;;25.13;12.10;;;;;;;15.00;68.19;97764.84;5073723;28;20257;-89
2022/11/17 03:29:40;;;;;;;32.07;14.27;;;;;;;14.98;68.29;97756.25;5073692;28;20174;-88
2022/11/17 03:32:08;;;;;;;38.80;15.93;;;;;;;14.91;68.25;97764.88;5072430;28;20175;-89
2022/11/17 03:34:40;;;;;;;44.10;18.90;;;;;;;14.86;68.21;97767.91;5073842;28;20174;-88
2022/11/17 03:37:09;;;;;;;42.93;18.47;;;;;;;14.86;67.91;97769.75;5073794;28;20197;-88
2022/11/17 03:39:42;;;;;;;36.07;17.40;;;;;;;14.67;67.89;97760.84;5073540;28;20184;-89
2022/11/17 03:42:23;;;;;;;39.23;17.10;;;;;;;14.71;67.91;97754.34;5072266;28;20682;-89
2022/11/17 03:44:53;;;;;;;32.87;15.17;;;;;;;14.78;67.45;97758.06;5072525;28;20538;-89
2022/11/17 03:47:22;;;;;;;37.03;16.87;;;;;;;14.77;67.00;97750.31;5073185;28;20274;-89
2022/11/17 03:49:59;;;;;;;41.57;17.37;;;;;;;14.67;67.47;97738.94;5073341;28;20185;-90
2022/11/17 03:52:28;;;;;;;38.83;18.67;;;;;;;14.68;67.53;97748.50;5073391;28;20165;-89
2022/11/17 03:54:54;;;;;;;31.40;15.73;;;;;;;14.70;67.68;97746.56;5072043;28;20174;-89
2022/11/17 03:57:45;;;;;;;38.33;16.47;;;;;;;14.70;67.53;97749.22;5073203;28;20219;-89
2022/11/17 04:00:14;;;;;;;35.07;17.40;;;;;;;14.69;67.79;97753.66;5072294;28;20181;-88
2022/11/17 04:02:42;;;;;;;37.27;16.03;;;;;;;14.72;66.88;97757.81;5072851;28;20601;-89
2022/11/17 04:05:08;;;;;;;36.60;16.53;;;;;;;14.70;67.21;97759.75;5072704;28;20235;-90
2022/11/17 04:07:36;;;;;;;33.70;15.10;;;;;;;14.71;67.36;97758.78;5073018;28;20219;-88
2022/11/17 04:10:04;;;;;;;38.73;17.33;;;;;;;14.69;66.87;97751.00;5071843;28;20250;-90
2022/11/17 04:17:57;;;;;;;34.70;16.80;;;;;;;14.66;67.32;97759.19;5073137;28;20168;-89
2022/11/17 04:20:23;;;;;;;35.13;15.70;;;;;;;14.65;67.51;97762.78;5072808;28;20541;-89
2022/11/17 04:23:06;;;;;;;39.47;17.93;;;;;;;14.62;67.60;97763.06;5073015;28;20533;-89
2022/11/17 04:28:36;;;;;;;39.70;17.50;;;;;;;14.38;67.95;97769.72;5074455;28;20277;-89
2022/11/17 04:31:03;;;;;;;29.90;15.30;;;;;;;14.36;68.79;97769.84;5075837;28;20695;-88
2022/11/17 04:33:28;;;;;;;35.40;16.40;;;;;;;14.43;68.21;97757.81;5075686;28;20181;-88
2022/11/17 04:35:54;;;;;;;36.90;16.43;;;;;;;14.50;68.33;97753.63;5076646;28;20202;-89
2022/11/17 04:38:19;;;;;;;34.23;13.73;;;;;;;14.47;67.95;97764.47;5076631;28;20207;-90
2022/11/17 04:41:52;;;;;;;30.47;14.57;;;;;;;14.45;67.87;97753.22;5075870;28;20183;-90
2022/11/17 04:43:30;;;;;;;35.47;15.10;;;;;;;14.55;67.77;97761.97;5076409;28;20185;-89
2022/11/17 04:45:59;;;;;;;37.33;15.50;;;;;;;14.39;68.51;97760.84;5076540;28;20205;-90
2022/11/17 04:48:26;;;;;;;33.57;15.73;;;;;;;14.38;68.63;97761.81;5076721;28;20235;-89
2022/11/17 04:50:56;;;;;;;36.03;16.33;;;;;;;14.41;68.91;97765.00;5075904;28;20208;-89
2022/11/17 04:53:22;;;;;;;34.27;16.73;;;;;;;14.45;68.78;97760.28;5076594;28;20186;-90
2022/11/17 04:55:48;;;;;;;33.83;14.97;;;;;;;14.46;68.64;97754.06;5076407;28;20197;-89
2022/11/17 04:58:13;;;;;;;36.67;14.50;;;;;;;14.52;68.62;97750.84;5076816;28;20189;-88
2022/11/17 05:00:39;;;;;;;37.97;15.47;;;;;;;14.52;68.55;97745.56;5076281;28;20189;-89
2022/11/17 05:03:05;;;;;;;36.87;15.30;;;;;;;14.53;68.48;97737.53;5076117;28;20191;-90
2022/11/17 05:05:30;;;;;;;27.00;14.03;;;;;;;14.58;67.98;97743.22;5075068;28;20210;-89
2022/11/17 05:07:56;;;;;;;34.03;15.77;;;;;;;14.46;68.17;97740.88;5076193;28;20179;-90
2022/11/17 05:13:24;;;;;;;36.40;15.53;;;;;;;14.46;68.34;97746.16;5076379;28;20318;-89
2022/11/17 05:18:42;;;;;;;34.23;14.90;;;;;;;14.41;68.50;97745.75;5076326;28;20244;-89
2022/11/17 05:21:09;;;;;;;35.53;16.07;;;;;;;14.39;68.68;97734.47;5076124;28;20179;-90
2022/11/17 05:23:53;;;;;;;34.30;16.83;;;;;;;14.39;68.61;97726.56;5075878;28;20181;-89
2022/11/17 05:26:27;;;;;;;30.70;15.53;;;;;;;14.40;68.34;97725.59;5076164;28;20163;-89
2022/11/17 05:28:58;;;;;;;35.30;15.40;;;;;;;14.40;68.62;97730.88;5074828;28;20190;-89
2022/11/17 05:31:24;;;;;;;33.27;14.97;;;;;;;14.33;69.00;97735.03;5075940;28;20286;-89
2022/11/17 05:33:50;;;;;;;36.33;14.10;;;;;;;14.37;69.02;97733.78;5075615;28;20631;-89
2022/11/17 05:36:16;;;;;;;36.60;16.37;;;;;;;14.39;69.12;97739.75;5074672;28;20244;-90
2022/11/17 05:38:42;;;;;;;30.90;15.77;;;;;;;14.45;68.85;97731.28;5074589;28;20209;-88
2022/11/17 05:41:08;;;;;;;36.53;16.10;;;;;;;14.25;69.63;97733.06;5074714;28;20636;-90
2022/11/17 05:43:33;;;;;;;32.47;14.73;;;;;;;14.39;69.63;97723.94;5075761;28;20205;-90
2022/11/17 05:45:59;;;;;;;33.27;14.50;;;;;;;14.26;70.08;97723.34;5075414;28;20181;-89
2022/11/17 05:48:24;;;;;;;35.40;15.77;;;;;;;14.41;69.64;97717.53;5075665;28;20180;-89
2022/11/17 05:50:54;;;;;;;40.57;18.27;;;;;;;14.21;70.51;97720.28;5075329;28;20538;-89
2022/11/17 05:53:21;;;;;;;43.37;18.63;;;;;;;14.37;70.50;97720.59;5075577;28;20185;-88
2022/11/17 05:55:47;;;;;;;56.47;22.53;;;;;;;14.25;70.99;97722.53;5075142;28;20193;-89
2022/11/17 05:58:24;;;;;;;38.97;16.93;;;;;;;14.43;70.92;97722.69;5075423;28;20172;-88
2022/11/17 06:00:51;;;;;;;36.50;16.67;;;;;;;14.46;70.26;97719.78;5074269;28;20182;-89
2022/11/17 06:03:25;;;;;;;35.20;16.90;;;;;;;14.55;69.95;97719.78;5074455;28;20194;-90
2022/11/17 06:05:52;;;;;;;37.83;17.53;;;;;;;14.65;70.04;97720.59;5075089;28;20196;-90
2022/11/17 06:08:18;;;;;;;35.30;16.37;;;;;;;14.75;69.72;97723.25;5074061;28;20596;-90
2022/11/17 06:10:44;;;;;;;37.50;16.10;;;;;;;14.84;69.94;97725.03;5074097;28;20175;-89
2022/11/17 06:13:09;;;;;;;38.33;14.83;;;;;;;15.02;69.07;97722.47;5073916;28;20179;-89
2022/11/17 06:15:35;;;;;;;36.40;15.17;;;;;;;15.12;68.75;97731.22;5073919;28;20536;-88
2022/11/17 06:18:07;;;;;;;31.37;14.70;;;;;;;15.09;68.67;97718.31;5074472;28;20185;-89
2022/11/17 06:20:37;;;;;;;35.87;17.57;;;;;;;15.17;68.60;97721.06;5074870;28;20166;-88
2022/11/17 06:23:05;;;;;;;32.90;13.80;;;;;;;15.29;67.70;97730.47;5074675;28;20224;-89
2022/11/17 06:25:33;;;;;;;36.90;15.63;;;;;;;15.32;67.17;97724.91;5073740;28;20205;-90
2022/11/17 06:28:01;;;;;;;37.63;15.90;;;;;;;15.35;67.01;97720.19;5073742;28;20323;-89
2022/11/17 06:30:28;;;;;;;36.77;16.23;;;;;;;15.36;66.51;97732.38;5074883;28;20205;-89
2022/11/17 06:32:55;;;;;;;33.77;15.33;;;;;;;15.38;66.62;97724.34;5074831;28;20181;-89
2022/11/17 06:35:21;;;;;;;34.73;15.77;;;;;;;15.42;66.72;97727.50;5074493;28;20625;-90
2022/11/17 06:37:47;;;;;;;36.27;15.53;;;;;;;15.49;66.47;97731.28;5073508;28;20193;-89
2022/11/17 06:40:12;;;;;;;36.07;15.57;;;;;;;15.43;66.76;97727.38;5074475;28;20235;-89
2022/11/17 06:45:23;;;;;;;37.20;15.67;;;;;;;15.59;66.33;97716.22;5075129;28;20571;-91
2022/11/17 06:47:51;;;;;;;30.37;14.00;;;;;;;15.56;67.26;97722.63;5074532;28;20178;-88
2022/11/17 06:50:16;;;;;;;35.83;15.87;;;;;;;15.58;67.40;97720.66;5074243;28;20690;-90
2022/11/17 06:52:41;;;;;;;35.07;15.07;;;;;;;15.82;67.41;97722.78;5074392;28;20174;-88
2022/11/17 06:55:07;;;;;;;30.97;14.80;;;;;;;16.06;67.33;97730.13;5073077;28;20183;-90
2022/11/17 06:57:33;;;;;;;26.07;12.63;;;;;;;16.30;65.98;97722.47;5074366;28;20211;-89
2022/11/17 06:59:58;;;;;;;30.93;13.73;;;;;;;16.38;65.05;97718.06;5074368;28;20195;-89
2022/11/17 07:02:24;;;;;;;32.97;15.30;;;;;;;16.43;63.72;97731.66;5074494;28;20179;-89
2022/11/17 07:04:49;;;;;;;28.50;13.67;;;;;;;16.48;63.68;97721.47;5072767;28;20349;-89
2022/11/17 07:07:15;;;;;;;31.37;14.60;;;;;;;16.53;62.98;97707.84;5073823;28;20183;-91
2022/11/17 07:09:40;;;;;;;27.97;14.47;;;;;;;16.51;63.19;97718.50;5074312;28;20210;-91
2022/11/17 07:12:06;;;;;;;35.43;15.37;;;;;;;16.51;63.30;97721.16;5073738;28;20194;-89
2022/11/17 07:14:31;;;;;;;31.83;14.77;;;;;;;16.62;63.81;97706.06;5073858;28;20184;-89
2022/11/17 07:16:57;;;;;;;30.50;13.67;;;;;;;16.77;63.57;97704.56;5074076;28;20208;-90
2022/11/17 07:19:22;;;;;;;33.20;15.40;;;;;;;16.89;62.88;97696.22;5072844;28;20176;-90
2022/11/17 07:21:48;;;;;;;31.97;13.80;;;;;;;17.05;61.85;97701.63;5073844;28;20191;-90
2022/11/17 07:24:13;;;;;;;29.07;14.23;;;;;;;17.10;61.46;97698.50;5073735;28;20179;-90
2022/11/17 07:26:39;;;;;;;32.13;13.80;;;;;;;17.14;60.92;97694.53;5073424;28;20173;-90
2022/11/17 07:29:04;;;;;;;28.50;14.47;;;;;;;17.00;60.65;97700.41;5073449;28;20619;-89
2022/11/17 07:31:30;;;;;;;28.57;14.87;;;;;;;17.00;60.96;97689.81;5073607;28;20626;-89
2022/11/17 07:33:55;;;;;;;32.07;14.57;;;;;;;16.97;61.03;97690.97;5073380;28;20175;-90
2022/11/17 07:36:21;;;;;;;31.30;14.97;;;;;;;16.90;60.68;97689.09;5073251;28;20666;-90
2022/11/17 07:38:46;;;;;;;29.97;13.93;;;;;;;16.85;60.99;97694.03;5073397;28;20183;-89
2022/11/17 07:41:13;;;;;;;31.90;14.20;;;;;;;16.82;61.03;97696.97;5073215;28;20176;-91
2022/11/17 07:43:39;;;;;;;32.03;13.67;;;;;;;16.71;61.99;97705.16;5073254;28;20180;-90
2022/11/17 07:46:05;;;;;;;30.33;15.63;;;;;;;16.52;62.12;97700.84;5073622;28;20183;-91
2022/11/17 07:48:31;;;;;;;28.50;14.70;;;;;;;16.40;62.25;97696.78;5072422;28;20183;-89
2022/11/17 07:50:58;;;;;;;30.20;14.27;;;;;;;16.41;62.26;97707.19;5073584;28;20661;-90
2022/11/17 07:53:23;;;;;;;29.43;14.40;;;;;;;16.35;62.39;97704.34;5072273;28;20272;-90
2022/11/17 07:55:49;;;;;;;31.87;14.40;;;;;;;16.32;62.79;97704.63;5073542;28;20349;-91
2022/11/17 07:58:14;;;;;;;32.80;15.77;;;;;;;16.25;63.45;97714.13;5072235;28;20181;-91
2022/11/17 08:00:40;;;;;;;39.73;15.40;;;;;;;16.15;64.17;97713.38;5073267;28;20245;-90
2022/11/17 08:03:05;;;;;;;32.90;15.23;;;;;;;16.18;64.30;97719.19;5072840;28;20286;-90
2022/11/17 08:05:34;;;;;;;33.90;15.57;;;;;;;16.18;64.78;97713.91;5072115;28;20199;-90
2022/11/17 08:08:00;;;;;;;35.07;16.27;;;;;;;16.16;65.30;97705.31;5073118;28;20645;-91
2022/11/17 08:10:27;;;;;;;32.60;15.70;;;;;;;16.24;65.41;97696.63;5072143;28;20189;-91
2022/11/17 08:12:53;;;;;;;33.67;13.57;;;;;;;16.21;65.34;97712.78;5072050;28;20195;-90
2022/11/17 08:15:20;;;;;;;36.77;15.97;;;;;;;16.23;65.29;97724.88;5073091;28;20185;-89
2022/11/17 08:17:50;;;;;;;30.73;15.63;;;;;;;16.28;65.23;97727.06;5072056;28;20208;-91
2022/11/17 08:20:16;;;;;;;35.57;16.90;;;;;;;16.31;64.72;97724.94;5072075;28;20208;-90
2022/11/17 08:22:41;;;;;;;33.87;15.47;;;;;;;16.25;65.42;97730.81;5073199;28;20211;-92
2022/11/17 08:25:07;;;;;;;33.20;15.77;;;;;;;16.24;65.27;97725.69;5073415;28;20592;-90
2022/11/17 08:27:33;;;;;;;32.60;15.93;;;;;;;16.25;65.86;97725.53;5073087;28;20172;-92
2022/11/17 08:29:59;;;;;;;32.80;15.77;;;;;;;16.27;66.47;97723.56;5072112;28;20647;-91
2022/11/17 08:32:24;;;;;;;34.27;15.50;;;;;;;16.16;66.30;97726.44;5072124;28;20211;-91
2022/11/17 08:34:50;;;;;;;32.63;15.60;;;;;;;16.21;66.22;97726.84;5071982;28;20179;-90
2022/11/17 08:37:15;;;;;;;30.40;14.83;;;;;;;16.21;66.26;97718.06;5071884;28;20207;-91
2022/11/17 08:39:41;;;;;;;31.93;15.43;;;;;;;16.19;66.34;97718.22;5072848;28;20640;-90
2022/11/17 08:42:06;;;;;;;40.87;16.10;;;;;;;16.18;66.25;97724.47;5073325;28;20220;-91
2022/11/17 08:44:32;;;;;;;37.07;16.60;;;;;;;16.16;66.45;97720.31;5071793;28;20180;-90
2022/11/17 08:46:57;;;;;;;34.20;15.77;;;;;;;16.14;66.04;97723.09;5072959;28;20176;-92
2022/11/17 08:49:23;;;;;;;35.70;15.30;;;;;;;16.07;66.23;97727.34;5071760;28;20191;-91
2022/11/17 08:51:48;;;;;;;37.80;16.63;;;;;;;16.06;66.26;97724.84;5071802;28;20212;-91
2022/11/17 08:54:14;;;;;;;30.13;14.70;;;;;;;16.07;65.79;97727.34;5072647;28;20559;-90
2022/11/17 08:56:39;;;;;;;38.17;17.40;;;;;;;15.91;66.32;97732.44;5071653;28;20218;-90
2022/11/17 08:59:11;;;;;;;34.73;16.43;;;;;;;15.75;67.14;97727.78;5072632;28;20175;-91
2022/11/17 09:01:37;;;;;;;35.73;15.80;;;;;;;15.66;67.48;97736.63;5072978;28;20194;-91
2022/11/17 09:04:02;;;;;;;34.77;15.83;;;;;;;15.64;68.56;97741.22;5071994;28;20614;-92
2022/11/17 09:06:27;;;;;;;37.47;16.10;;;;;;;15.54;68.62;97742.22;5072756;28;20202;-91
2022/11/17 09:08:54;;;;;;;36.40;16.47;;;;;;;15.43;69.40;97745.03;5072773;28;20209;-93
2022/11/17 09:11:19;;;;;;;35.00;15.97;;;;;;;15.50;69.78;97743.47;5072115;28;20692;-91
2022/11/17 09:13:45;;;;;;;42.73;15.53;;;;;;;15.38;69.83;97762.09;5071914;28;20273;-92
2022/11/17 09:16:11;;;;;;;31.30;15.07;;;;;;;15.19;70.55;97766.63;5074109;28;20302;-92
2022/11/17 09:18:38;;;;;;;34.33;14.73;;;;;;;14.97;71.99;97761.66;5075463;28;20191;-91
2022/11/17 09:21:09;;;;;;;36.73;14.83;;;;;;;14.62;73.71;97773.63;5075611;28;20185;-91
2022/11/17 09:23:35;;;;;;;30.30;15.73;;;;;;;14.55;74.03;97776.94;5075410;28;20176;-92
2022/11/17 09:26:10;;;;;;;36.03;15.67;;;;;;;14.41;75.32;97786.09;5075388;28;20577;-91
2022/11/17 09:28:36;;;;;;;33.03;15.70;;;;;;;14.13;76.86;97792.13;5076856;28;20180;-92
2022/11/17 09:31:07;;;;;;;38.10;17.97;;;;;;;14.28;76.59;97788.13;5075579;28;20176;-92
2022/11/17 09:33:33;;;;;;;38.37;17.00;;;;;;;14.24;76.89;97784.09;5075597;28;20188;-92
2022/11/17 09:35:58;;;;;;;34.80;14.83;;;;;;;14.16;77.52;97787.41;5075091;28;20212;-92
2022/11/17 09:38:24;;;;;;;36.70;17.23;;;;;;;14.28;77.28;97784.69;5075158;28;20251;-92
2022/11/17 09:40:51;;;;;;;37.57;16.67;;;;;;;14.23;77.75;97784.25;5075154;28;20204;-92
2022/11/17 09:43:29;;;;;;;37.23;16.67;;;;;;;14.24;77.61;97792.00;5075338;28;20212;-91
2022/11/17 09:46:14;;;;;;;37.30;16.17;;;;;;;14.05;78.85;97795.44;5075210;28;20176;-92
2022/11/17 09:49:11;;;;;;;33.90;14.33;;;;;;;13.95;79.88;97797.22;5075234;28;20176;-91
2022/11/17 09:51:41;;;;;;;38.53;16.53;;;;;;;13.71;81.46;97809.03;5075070;28;20178;-92
2022/11/17 09:54:25;;;;;;;41.07;19.83;;;;;;;13.75;81.60;97810.44;5075403;28;20176;-93
2022/11/17 09:56:53;;;;;;;41.30;18.17;;;;;;;13.76;82.06;97822.63;5075888;28;20189;-92
2022/11/17 09:59:21;;;;;;;44.67;18.83;;;;;;;13.57;83.55;97823.41;5074849;28;20255;-91
2022/11/17 10:01:46;;;;;;;40.70;18.03;;;;;;;13.47;84.16;97833.00;5074902;28;20177;-92
2022/11/17 10:04:15;;;;;;;43.47;20.43;;;;;;;13.54;84.04;97818.38;5074809;28;20173;-93
2022/11/17 10:06:45;;;;;;;42.93;17.23;;;;;;;13.47;84.37;97830.38;5074967;28;20173;-91
2022/11/17 10:09:29;;;;;;;44.07;19.07;;;;;;;13.41;85.39;97830.94;5076158;28;20535;-92
2022/11/17 10:12:11;;;;;;;48.60;19.53;;;;;;;13.49;85.47;97831.09;5074572;28;20187;-92
2022/11/17 10:14:39;;;;;;;39.80;20.03;;;;;;;13.85;84.19;97827.94;5074740;28;20176;-92
2022/11/17 10:17:05;;;;;;;57.50;21.83;;;;;;;14.00;83.94;97818.72;5074552;28;20204;-92
2022/11/17 10:19:35;;;;;;;45.70;19.33;;;;;;;14.02;82.86;97823.84;5074684;28;20246;-91
2022/11/17 10:22:00;;;;;;;42.93;19.30;;;;;;;13.99;83.29;97817.03;5074591;28;20192;-92
2022/11/17 10:24:46;;;;;;;44.80;20.83;;;;;;;14.12;83.27;97822.91;5074625;28;20185;-93
2022/11/17 10:27:26;;;;;;;50.17;20.23;;;;;;;14.11;82.94;97826.53;5074071;28;20180;-92
2022/11/17 10:30:01;;;;;;;38.57;19.17;;;;;;;14.06;82.81;97819.97;5074303;28;20188;-93
2022/11/17 10:32:30;;;;;;;40.80;19.10;;;;;;;13.81;84.43;97810.72;5074257;28;20180;-92
2022/11/17 10:35:12;;;;;;;41.83;17.87;;;;;;;13.89;83.92;97803.00;5074228;28;20177;-91
2022/11/17 10:37:43;;;;;;;41.67;20.27;;;;;;;14.18;83.09;97802.28;5074091;28;20204;-92
2022/11/17 10:40:22;;;;;;;55.23;21.53;;;;;;;14.30;82.37;97794.09;5074037;28;20204;-93
2022/11/17 10:43:10;;;;;;;48.13;19.67;;;;;;;14.52;82.25;97785.97;5074224;28;20256;-94
2022/11/17 10:45:36;;;;;;;47.67;20.23;;;;;;;14.57;81.41;97775.03;5074098;28;20606;-93
2022/11/17 10:48:25;;;;;;;52.53;19.17;;;;;;;14.74;81.17;97771.69;5074876;28;20181;-92
2022/11/17 10:51:01;;;;;;;44.23;19.57;;;;;;;14.77;81.21;97763.50;5073977;28;20182;-92
2022/11/17 10:53:35;;;;;;;41.10;18.87;;;;;;;14.89;80.28;97757.09;5073840;28;20178;-91
2022/11/17 10:56:17;;;;;;;47.23;19.00;;;;;;;14.80;80.56;97750.03;5074913;28;20181;-92
2022/11/17 10:59:13;;;;;;;37.70;17.40;;;;;;;14.88;80.62;97739.59;5073880;28;20614;-93
2022/11/17 11:01:41;;;;;;;40.23;17.70;;;;;;;14.98;80.36;97735.16;5073781;28;20265;-92
2022/11/17 11:04:30;;;;;;;36.83;17.70;;;;;;;14.95;80.97;97738.06;5073715;28;20277;-93
2022/11/17 11:07:14;;;;;;;43.60;19.00;;;;;;;15.08;80.92;97729.84;5075250;28;20171;-93
2022/11/17 11:09:55;;;;;;;34.90;17.77;;;;;;;15.25;80.31;97729.91;5073531;28;20173;-93
2022/11/17 11:12:40;;;;;;;36.13;17.87;;;;;;;15.14;80.42;97727.47;5073353;28;20184;-92
2022/11/17 11:15:12;;;;;;;34.77;16.07;;;;;;;15.12;80.66;97724.13;5073701;28;20273;-92
2022/11/17 11:17:38;;;;;;;36.20;16.23;;;;;;;15.18;80.60;97715.63;5073397;28;20207;-92
2022/11/17 11:20:11;;;;;;;39.77;17.53;;;;;;;15.12;80.97;97729.41;5073273;28;20542;-91
2022/11/17 11:22:51;;;;;;;42.03;19.80;;;;;;;15.35;80.44;97749.22;5073300;28;20165;-91
2022/11/17 11:25:28;;;;;;;34.37;16.97;;;;;;;15.53;79.72;97738.75;5073328;28;20180;-91
2022/11/17 11:28:13;;;;;;;34.93;16.47;;;;;;;15.66;79.33;97747.19;5073482;28;20253;-92
2022/11/17 11:31:10;;;;;;;37.87;17.17;;;;;;;15.69;78.65;97743.41;5073490;28;20173;-92
2022/11/17 11:33:40;;;;;;;35.97;17.73;;;;;;;15.78;78.65;97746.00;5073141;28;20538;-92
2022/11/17 11:36:17;;;;;;;34.37;16.77;;;;;;;15.97;78.19;97755.63;5072949;28;20215;-92
2022/11/17 11:39:22;;;;;;;33.30;17.17;;;;;;;16.10;77.83;97752.63;5072414;28;20264;-91
2022/11/17 11:42:32;;;;;;;30.53;16.07;;;;;;;16.16;77.48;97744.97;5038613;28;20203;-92
2022/11/17 11:45:23;;;;;;;32.00;16.00;;;;;;;16.21;78.08;97749.78;5074386;28;20184;-91
2022/11/17 11:48:16;;;;;;;32.30;17.67;;;;;;;16.31;78.02;97751.38;5073023;28;20168;-92
2022/11/17 11:50:52;;;;;;;38.60;18.03;;;;;;;16.33;77.99;97756.50;5073966;28;20528;-95
2022/11/17 11:53:43;;;;;;;35.47;17.77;;;;;;;16.35;78.70;97752.75;5073297;28;20184;-91
2022/11/17 11:56:11;;;;;;;36.90;17.50;;;;;;;16.45;79.01;97748.22;5072857;28;20562;-92
2022/11/17 11:58:43;;;;;;;33.10;16.97;;;;;;;16.53;78.80;97745.66;5072756;28;20188;-91
2022/11/17 12:01:11;;;;;;;35.37;16.47;;;;;;;16.61;78.69;97742.28;5072736;28;20195;-93
2022/11/17 12:03:47;;;;;;;33.90;16.10;;;;;;;16.68;78.67;97747.78;5073822;28;20314;-92
2022/11/17 12:06:39;;;;;;;37.87;17.73;;;;;;;16.69;79.23;97738.88;5072508;28;20597;-91